EST,Max TemperatureF,Mean TemperatureF,Min TemperatureF,Max Dew PointF,MeanDew PointF,Min DewpointF,Max Humidity, Mean Humidity, Min Humidity, Max Sea Level PressureIn, Mean Sea Level PressureIn, Min Sea Level PressureIn, Max VisibilityMiles, Mean VisibilityMiles, Min VisibilityMiles, Max Wind SpeedMPH, Mean Wind SpeedMPH, Max Gust SpeedMPH,PrecipitationIn, CloudCover, Events, WindDirDegrees
2014-1-1,52,40,28,24,19,16,69,48,26,30.32,30.22,30.04,10,10,10,9,4,14,0.00,0,,219
2014-1-2,40,27,13,38,23,8,92,66,40,30.17,29.90,29.73,10,4,0,21,8,30,0.29,8,Fog-Rain-Snow,283
2014-1-3,21,15,8,7,4,1,80,65,49,30.49,30.38,30.14,10,9,2,15,4,23,T,3,Snow,314
2014-1-4,46,30,14,23,11,6,73,48,22,30.30,30.22,30.11,10,10,10,10,4,18,0.00,0,,192
2014-1-5,56,45,33,47,37,25,92,73,54,30.09,29.80,29.53,10,8,2,24,7,40,0.42,6,Rain-Snow,202
2014-1-6,34,16,-3,30,6,-11,92,77,62,30.43,30.06,29.69,10,4,0,21,11,35,0.16,7,Fog-Snow,265
2014-1-7,12,3,-7,-3,-8,-14,75,64,52,30.59,30.46,30.35,10,9,1,14,5,20,T,3,Snow,234
2014-1-8,33,20,6,14,7,-3,76,58,39,30.55,30.48,30.45,10,10,10,8,3,14,0.00,1,,202
2014-1-9,43,36,28,29,18,12,64,49,33,30.52,30.43,30.30,10,10,10,7,2,10,0.03,6,Rain,130
2014-1-10,55,46,36,49,40,31,92,78,64,30.29,30.17,29.86,10,7,0,9,3,16,0.12,7,Fog-Rain,93
2014-1-11,59,49,38,52,47,30,96,72,47,29.88,29.67,29.55,10,6,1,20,8,32,0.87,7,Rain-Thunderstorm,251
2014-1-12,53,44,34,33,30,25,89,64,38,30.12,30.03,29.88,10,10,1,12,5,16,0.00,3,,206
2014-1-13,52,47,41,43,37,26,92,69,46,30.00,29.88,29.80,10,9,4,14,6,24,0.28,6,Rain,200
2014-1-14,52,46,39,43,39,26,96,69,41,29.93,29.84,29.77,10,6,0,16,6,22,0.21,7,Fog-Rain,234
2014-1-15,39,31,22,32,23,12,89,68,47,30.09,30.00,29.93,10,10,7,13,6,20,T,5,Rain-Snow,282
2014-1-16,37,29,20,22,16,10,84,61,38,30.06,29.96,29.84,10,10,10,13,4,23,T,6,,196
2014-1-17,38,28,17,31,24,8,92,74,56,30.09,29.89,29.80,10,5,0,16,6,24,0.15,7,Fog-Snow,253
2014-1-18,35,24,13,16,12,5,80,64,47,30.12,30.01,29.83,10,10,3,12,5,18,T,7,Snow,240
2014-1-19,41,37,33,30,25,15,75,60,44,30.00,29.92,29.81,10,8,1,14,7,22,0.02,5,Snow,244
2014-1-20,55,46,36,27,24,21,59,46,32,29.91,29.86,29.82,10,10,10,15,6,26,0.00,0,,244
2014-1-21,38,28,17,28,18,1,92,78,64,30.14,29.86,29.68,10,3,0,15,7,23,0.34,8,Fog-Snow,346
2014-1-22,16,8,0,9,1,-6,87,70,53,30.19,30.13,30.07,10,9,3,10,2,15,T,5,Snow,279
2014-1-23,18,10,1,12,3,-8,69,58,46,30.64,30.32,30.11,10,6,0,16,8,22,0.01,6,Snow,286
2014-1-24,21,9,-3,2,-4,-9,83,59,35,30.68,30.46,30.01,10,10,10,12,5,20,0.00,1,,222
2014-1-25,33,26,19,26,13,-4,92,61,29,29.99,29.74,29.61,10,7,0,22,9,35,0.22,6,Fog-Snow,234
2014-1-26,51,32,13,28,13,-4,53,45,36,29.97,29.78,29.66,10,10,10,14,6,27,0.00,3,,219
2014-1-27,47,28,9,29,9,-7,77,54,31,30.37,30.05,29.70,10,8,2,23,7,33,0.01,5,Snow,298
2014-1-28,12,8,3,-3,-5,-10,72,61,50,30.43,30.37,30.32,10,10,10,8,2,11,0.00,4,,33
2014-1-29,22,11,-1,-3,-6,-10,72,53,33,30.43,30.38,30.35,10,10,10,7,3,11,0.00,0,,241
2014-1-30,40,24,8,3,-1,-5,63,41,19,30.35,30.21,30.06,10,10,10,10,5,17,0.00,0,,189
2014-1-31,42,37,31,21,11,4,41,33,25,30.19,30.14,30.09,10,10,10,9,3,14,0.00,5,,200